sensor_id;sensor_type;location;lat;lon;timestamp;pressure;altitude;pressure_sealevel;temperature;humidity
8920;BME280;4495;42.644;23.274;2024-02-26T00:02:06;92562.56;;;6.24;73.12
8920;BME280;4495;42.644;23.274;2024-02-26T00:04:32;92561.19;;;6.27;72.28
8920;BME280;4495;42.644;23.274;2024-02-26T00:06:57;92554.97;;;6.19;71.59
8920;BME280;4495;42.644;23.274;2024-02-26T00:09:23;92546.13;;;6.20;70.45
8920;BME280;4495;42.644;23.274;2024-02-26T00:11:49;92554.19;;;6.28;71.47
8920;BME280;4495;42.644;23.274;2024-02-26T00:14:14;92558.16;;;6.34;71.62
8920;BME280;4495;42.644;23.274;2024-02-26T00:16:40;92562.28;;;6.35;73.08
8920;BME280;4495;42.644;23.274;2024-02-26T00:19:06;92560.16;;;6.37;70.87
8920;BME280;4495;42.644;23.274;2024-02-26T00:21:32;92553.44;;;6.27;71.39
8920;BME280;4495;42.644;23.274;2024-02-26T00:23:57;92545.09;;;6.30;72.85
8920;BME280;4495;42.644;23.274;2024-02-26T00:26:23;92545.72;;;6.36;72.99
8920;BME280;4495;42.644;23.274;2024-02-26T00:28:48;92547.09;;;6.42;72.70
8920;BME280;4495;42.644;23.274;2024-02-26T00:31:13;92545.56;;;6.50;74.22
8920;BME280;4495;42.644;23.274;2024-02-26T00:33:39;92541.34;;;6.62;72.91
8920;BME280;4495;42.644;23.274;2024-02-26T00:36:05;92537.66;;;6.63;72.19
8920;BME280;4495;42.644;23.274;2024-02-26T00:38:30;92537.25;;;6.61;71.41
8920;BME280;4495;42.644;23.274;2024-02-26T00:40:56;92530.22;;;6.44;72.72
8920;BME280;4495;42.644;23.274;2024-02-26T00:43:21;92525.06;;;6.44;70.88
8920;BME280;4495;42.644;23.274;2024-02-26T00:45:46;92526.13;;;6.52;72.90
8920;BME280;4495;42.644;23.274;2024-02-26T00:48:12;92523.88;;;6.59;71.80
8920;BME280;4495;42.644;23.274;2024-02-26T00:50:39;92516.88;;;6.60;71.08
8920;BME280;4495;42.644;23.274;2024-02-26T00:53:05;92519.28;;;6.56;71.07
8920;BME280;4495;42.644;23.274;2024-02-26T00:55:30;92522.31;;;6.58;70.69
8920;BME280;4495;42.644;23.274;2024-02-26T00:57:56;92510.78;;;6.64;70.60
8920;BME280;4495;42.644;23.274;2024-02-26T01:00:21;92504.06;;;6.72;71.12
8920;BME280;4495;42.644;23.274;2024-02-26T01:02:47;92505.28;;;6.75;71.02
8920;BME280;4495;42.644;23.274;2024-02-26T01:05:13;92505.28;;;6.75;71.44
8920;BME280;4495;42.644;23.274;2024-02-26T01:07:39;92507.00;;;6.79;71.89
8920;BME280;4495;42.644;23.274;2024-02-26T01:10:08;92508.03;;;6.87;72.05
8920;BME280;4495;42.644;23.274;2024-02-26T01:12:34;92507.72;;;6.89;73.93
8920;BME280;4495;42.644;23.274;2024-02-26T01:15:00;92508.78;;;6.87;75.41
8920;BME280;4495;42.644;23.274;2024-02-26T01:17:25;92505.00;;;6.85;73.40
8920;BME280;4495;42.644;23.274;2024-02-26T01:19:51;92505.72;;;7.03;71.74
8920;BME280;4495;42.644;23.274;2024-02-26T01:22:17;92506.03;;;7.01;72.34
8920;BME280;4495;42.644;23.274;2024-02-26T01:24:43;92512.91;;;6.97;71.74
8920;BME280;4495;42.644;23.274;2024-02-26T01:27:08;92507.84;;;7.01;71.30
8920;BME280;4495;42.644;23.274;2024-02-26T01:29:34;92503.13;;;7.03;71.77
8920;BME280;4495;42.644;23.274;2024-02-26T01:32:00;92498.13;;;7.06;70.79
8920;BME280;4495;42.644;23.274;2024-02-26T01:34:25;92500.41;;;6.99;73.03
8920;BME280;4495;42.644;23.274;2024-02-26T01:36:50;92498.25;;;7.01;73.28
8920;BME280;4495;42.644;23.274;2024-02-26T01:39:16;92492.50;;;6.96;72.44
8920;BME280;4495;42.644;23.274;2024-02-26T01:41:41;92500.84;;;7.01;72.44
8920;BME280;4495;42.644;23.274;2024-02-26T01:44:07;92497.22;;;7.02;73.01
8920;BME280;4495;42.644;23.274;2024-02-26T01:46:34;92488.84;;;6.97;73.32
8920;BME280;4495;42.644;23.274;2024-02-26T01:49:01;92495.69;;;7.01;72.30
8920;BME280;4495;42.644;23.274;2024-02-26T01:51:29;92488.81;;;7.14;72.43
8920;BME280;4495;42.644;23.274;2024-02-26T01:53:55;92493.69;;;7.16;71.87
8920;BME280;4495;42.644;23.274;2024-02-26T01:56:21;92489.56;;;7.23;72.42
8920;BME280;4495;42.644;23.274;2024-02-26T01:58:48;92500.19;;;7.31;71.85
8920;BME280;4495;42.644;23.274;2024-02-26T02:01:15;92492.56;;;7.34;72.53
8920;BME280;4495;42.644;23.274;2024-02-26T02:03:41;92494.84;;;7.36;72.37
8920;BME280;4495;42.644;23.274;2024-02-26T02:06:07;92485.75;;;7.21;72.45
8920;BME280;4495;42.644;23.274;2024-02-26T02:08:33;92487.59;;;7.12;72.57
8920;BME280;4495;42.644;23.274;2024-02-26T02:11:00;92489.75;;;7.10;72.28
8920;BME280;4495;42.644;23.274;2024-02-26T02:13:25;92488.53;;;7.16;71.96
8920;BME280;4495;42.644;23.274;2024-02-26T02:15:51;92482.88;;;7.22;71.81
8920;BME280;4495;42.644;23.274;2024-02-26T02:18:17;92477.91;;;7.08;71.78
8920;BME280;4495;42.644;23.274;2024-02-26T02:20:43;92482.94;;;6.96;73.04
8920;BME280;4495;42.644;23.274;2024-02-26T02:23:08;92485.53;;;6.87;72.33
8920;BME280;4495;42.644;23.274;2024-02-26T02:25:33;92480.97;;;6.93;71.98
8920;BME280;4495;42.644;23.274;2024-02-26T02:27:59;92489.75;;;7.10;71.88
8920;BME280;4495;42.644;23.274;2024-02-26T02:30:27;92484.88;;;7.08;71.77
8920;BME280;4495;42.644;23.274;2024-02-26T02:32:53;92480.50;;;7.00;71.89
8920;BME280;4495;42.644;23.274;2024-02-26T02:35:18;92480.78;;;6.98;73.34
8920;BME280;4495;42.644;23.274;2024-02-26T02:37:44;92487.03;;;6.97;73.12
8920;BME280;4495;42.644;23.274;2024-02-26T02:40:09;92484.31;;;6.85;73.41
8920;BME280;4495;42.644;23.274;2024-02-26T02:42:35;92484.16;;;6.81;73.79
8920;BME280;4495;42.644;23.274;2024-02-26T02:45:00;92476.53;;;7.02;73.30
8920;BME280;4495;42.644;23.274;2024-02-26T02:47:26;92480.03;;;7.06;72.42
8920;BME280;4495;42.644;23.274;2024-02-26T02:49:51;92490.19;;;7.12;72.38
8920;BME280;4495;42.644;23.274;2024-02-26T02:52:16;92500.69;;;7.15;73.65
8920;BME280;4495;42.644;23.274;2024-02-26T02:54:42;92507.06;;;7.18;73.32
8920;BME280;4495;42.644;23.274;2024-02-26T02:57:08;92502.75;;;7.31;73.25
8920;BME280;4495;42.644;23.274;2024-02-26T02:59:33;92500.19;;;7.31;72.68
8920;BME280;4495;42.644;23.274;2024-02-26T03:01:59;92492.59;;;7.25;73.06
8920;BME280;4495;42.644;23.274;2024-02-26T03:04:24;92489.91;;;7.13;73.16
8920;BME280;4495;42.644;23.274;2024-02-26T03:06:50;92497.19;;;7.11;73.36
8920;BME280;4495;42.644;23.274;2024-02-26T03:09:15;92503.28;;;7.15;73.99
8920;BME280;4495;42.644;23.274;2024-02-26T03:11:40;92493.81;;;7.19;73.74
8920;BME280;4495;42.644;23.274;2024-02-26T03:14:06;92503.28;;;7.15;73.04
8920;BME280;4495;42.644;23.274;2024-02-26T03:16:32;92494.28;;;7.13;74.27
8920;BME280;4495;42.644;23.274;2024-02-26T03:18:57;92495.84;;;7.05;73.82
8920;BME280;4495;42.644;23.274;2024-02-26T03:21:25;92488.25;;;7.00;74.10
8920;BME280;4495;42.644;23.274;2024-02-26T03:23:50;92490.22;;;6.94;73.94
8920;BME280;4495;42.644;23.274;2024-02-26T03:26:15;92486.63;;;6.69;76.26
8920;BME280;4495;42.644;23.274;2024-02-26T03:28:41;92482.19;;;6.87;75.92
8920;BME280;4495;42.644;23.274;2024-02-26T03:31:06;92478.84;;;6.95;74.58
8920;BME280;4495;42.644;23.274;2024-02-26T03:33:32;92477.59;;;6.93;74.43
8920;BME280;4495;42.644;23.274;2024-02-26T03:35:57;92468.50;;;6.86;75.47
8920;BME280;4495;42.644;23.274;2024-02-26T03:38:23;92470.75;;;6.88;74.18
8920;BME280;4495;42.644;23.274;2024-02-26T03:40:48;92476.06;;;7.00;74.09
8920;BME280;4495;42.644;23.274;2024-02-26T03:43:14;92479.59;;;6.96;73.81
8920;BME280;4495;42.644;23.274;2024-02-26T03:45:39;92476.06;;;7.00;73.21
8920;BME280;4495;42.644;23.274;2024-02-26T03:48:05;92472.75;;;6.91;73.45
8920;BME280;4495;42.644;23.274;2024-02-26T03:50:30;92464.53;;;6.89;73.96
8920;BME280;4495;42.644;23.274;2024-02-26T03:52:56;92470.31;;;6.86;73.84
8920;BME280;4495;42.644;23.274;2024-02-26T03:55:22;92463.50;;;6.73;74.41
8920;BME280;4495;42.644;23.274;2024-02-26T03:57:53;92465.94;;;6.78;75.05
8920;BME280;4495;42.644;23.274;2024-02-26T04:00:19;92472.03;;;6.73;74.63
8920;BME280;4495;42.644;23.274;2024-02-26T04:02:46;92464.28;;;6.64;74.29
8920;BME280;4495;42.644;23.274;2024-02-26T04:05:11;92462.72;;;6.72;74.87
8920;BME280;4495;42.644;23.274;2024-02-26T04:07:37;92454.81;;;6.86;74.32
8920;BME280;4495;42.644;23.274;2024-02-26T04:10:03;92454.06;;;6.85;74.28
8920;BME280;4495;42.644;23.274;2024-02-26T04:12:31;92466.97;;;6.77;74.30
8920;BME280;4495;42.644;23.274;2024-02-26T04:14:56;92461.97;;;6.72;74.76
8920;BME280;4495;42.644;23.274;2024-02-26T04:17:22;92459.69;;;6.79;75.59
8920;BME280;4495;42.644;23.274;2024-02-26T04:19:47;92452.38;;;6.81;75.57
8920;BME280;4495;42.644;23.274;2024-02-26T04:22:12;92451.91;;;6.87;75.60
8920;BME280;4495;42.644;23.274;2024-02-26T04:24:38;92455.13;;;6.76;75.48
8920;BME280;4495;42.644;23.274;2024-02-26T04:27:03;92455.44;;;6.57;76.51
8920;BME280;4495;42.644;23.274;2024-02-26T04:29:29;92446.81;;;6.53;76.25
8920;BME280;4495;42.644;23.274;2024-02-26T04:31:54;92447.56;;;6.71;76.15
8920;BME280;4495;42.644;23.274;2024-02-26T04:34:20;92451.81;;;6.75;75.67
8920;BME280;4495;42.644;23.274;2024-02-26T04:36:45;92451.78;;;6.84;74.29
8920;BME280;4495;42.644;23.274;2024-02-26T04:39:10;92451.91;;;6.96;74.64
8920;BME280;4495;42.644;23.274;2024-02-26T04:41:36;92457.84;;;6.88;74.40
8920;BME280;4495;42.644;23.274;2024-02-26T04:44:01;92449.63;;;6.86;74.21
8920;BME280;4495;42.644;23.274;2024-02-26T04:46:27;92449.97;;;6.84;75.33
8920;BME280;4495;42.644;23.274;2024-02-26T04:48:53;92453.09;;;6.99;75.11
8920;BME280;4495;42.644;23.274;2024-02-26T04:51:19;92458.09;;;7.04;73.74
8920;BME280;4495;42.644;23.274;2024-02-26T04:53:44;92467.41;;;7.05;74.96
8920;BME280;4495;42.644;23.274;2024-02-26T04:56:10;92460.88;;;6.90;75.14
8920;BME280;4495;42.644;23.274;2024-02-26T04:58:35;92472.41;;;7.01;75.16
8920;BME280;4495;42.644;23.274;2024-02-26T05:01:00;92473.03;;;7.07;75.32
8920;BME280;4495;42.644;23.274;2024-02-26T05:03:26;92467.09;;;7.06;74.66
8920;BME280;4495;42.644;23.274;2024-02-26T05:05:51;92474.88;;;6.89;75.61
8920;BME280;4495;42.644;23.274;2024-02-26T05:08:17;92475.63;;;6.98;75.46
8920;BME280;4495;42.644;23.274;2024-02-26T05:10:42;92475.91;;;6.97;76.15
8920;BME280;4495;42.644;23.274;2024-02-26T05:13:10;92478.94;;;7.07;76.57
8920;BME280;4495;42.644;23.274;2024-02-26T05:15:36;92481.06;;;7.05;75.49
8920;BME280;4495;42.644;23.274;2024-02-26T05:18:02;92493.25;;;7.14;75.84
8920;BME280;4495;42.644;23.274;2024-02-26T05:20:28;92502.06;;;7.04;75.70
8920;BME280;4495;42.644;23.274;2024-02-26T05:22:53;92494.19;;;7.00;76.38
8920;BME280;4495;42.644;23.274;2024-02-26T05:25:19;92498.25;;;7.01;76.95
8920;BME280;4495;42.644;23.274;2024-02-26T05:27:45;92496.00;;;7.08;76.11
8920;BME280;4495;42.644;23.274;2024-02-26T05:30:11;92501.44;;;7.16;76.45
8920;BME280;4495;42.644;23.274;2024-02-26T05:32:37;92502.19;;;7.16;75.75
8920;BME280;4495;42.644;23.274;2024-02-26T05:35:02;92507.88;;;6.92;77.27
8920;BME280;4495;42.644;23.274;2024-02-26T05:37:29;92504.34;;;7.05;77.50
8920;BME280;4495;42.644;23.274;2024-02-26T05:39:54;92508.31;;;7.03;77.02
8920;BME280;4495;42.644;23.274;2024-02-26T05:42:20;92506.00;;;7.10;77.16
8920;BME280;4495;42.644;23.274;2024-02-26T05:44:45;92512.72;;;7.02;77.10
8920;BME280;4495;42.644;23.274;2024-02-26T05:47:10;92519.09;;;7.05;77.50
8920;BME280;4495;42.644;23.274;2024-02-26T05:49:36;92516.22;;;7.06;76.71
8920;BME280;4495;42.644;23.274;2024-02-26T05:52:01;92507.66;;;7.15;76.99
8920;BME280;4495;42.644;23.274;2024-02-26T05:54:27;92517.88;;;7.20;76.78
8920;BME280;4495;42.644;23.274;2024-02-26T05:56:52;92513.91;;;7.22;75.92
8920;BME280;4495;42.644;23.274;2024-02-26T05:59:18;92518.63;;;7.12;77.47
8920;BME280;4495;42.644;23.274;2024-02-26T06:01:43;92521.41;;;7.06;76.87
8920;BME280;4495;42.644;23.274;2024-02-26T06:04:09;92530.94;;;7.23;76.03
8920;BME280;4495;42.644;23.274;2024-02-26T06:06:34;92527.75;;;7.18;77.27
8920;BME280;4495;42.644;23.274;2024-02-26T06:08:59;92529.25;;;7.27;76.74
8920;BME280;4495;42.644;23.274;2024-02-26T06:11:25;92518.91;;;7.27;77.37
8920;BME280;4495;42.644;23.274;2024-02-26T06:13:50;92532.44;;;7.33;77.21
8920;BME280;4495;42.644;23.274;2024-02-26T06:16:16;92531.94;;;7.40;76.23
8920;BME280;4495;42.644;23.274;2024-02-26T06:18:41;92534.69;;;7.43;76.42
8920;BME280;4495;42.644;23.274;2024-02-26T06:21:10;92531.03;;;7.44;76.10
8920;BME280;4495;42.644;23.274;2024-02-26T06:23:36;92527.22;;;7.50;77.20
8920;BME280;4495;42.644;23.274;2024-02-26T06:26:01;92535.56;;;7.56;77.44
8920;BME280;4495;42.644;23.274;2024-02-26T06:28:27;92530.97;;;7.62;76.43
8920;BME280;4495;42.644;23.274;2024-02-26T06:30:55;92532.47;;;7.72;75.56
8920;BME280;4495;42.644;23.274;2024-02-26T06:33:21;92531.47;;;7.46;75.45
8920;BME280;4495;42.644;23.274;2024-02-26T06:35:46;92524.00;;;7.54;76.74
8920;BME280;4495;42.644;23.274;2024-02-26T06:38:12;92533.41;;;7.67;75.81
8920;BME280;4495;42.644;23.274;2024-02-26T06:40:39;92529.00;;;7.59;76.08
8920;BME280;4495;42.644;23.274;2024-02-26T06:43:04;92538.59;;;7.67;76.28
8920;BME280;4495;42.644;23.274;2024-02-26T06:45:29;92528.75;;;7.43;77.18
8920;BME280;4495;42.644;23.274;2024-02-26T06:47:55;92538.25;;;7.68;77.98
8920;BME280;4495;42.644;23.274;2024-02-26T06:50:21;92541.66;;;7.60;76.73
8920;BME280;4495;42.644;23.274;2024-02-26T06:52:47;92538.41;;;7.72;77.41
8920;BME280;4495;42.644;23.274;2024-02-26T06:55:12;92536.09;;;7.79;75.28
8920;BME280;4495;42.644;23.274;2024-02-26T06:57:38;92535.44;;;7.82;76.04
8920;BME280;4495;42.644;23.274;2024-02-26T07:00:04;92535.34;;;7.79;76.11
8920;BME280;4495;42.644;23.274;2024-02-26T07:02:30;92528.28;;;7.88;75.35
8920;BME280;4495;42.644;23.274;2024-02-26T07:04:56;92530.69;;;7.93;75.31
8920;BME280;4495;42.644;23.274;2024-02-26T07:07:23;92537.69;;;7.63;76.22
8920;BME280;4495;42.644;23.274;2024-02-26T07:09:49;92542.88;;;7.54;76.66
8920;BME280;4495;42.644;23.274;2024-02-26T07:12:15;92547.19;;;7.24;77.72
8920;BME280;4495;42.644;23.274;2024-02-26T07:14:41;92543.56;;;7.25;78.23
8920;BME280;4495;42.644;23.274;2024-02-26T07:17:07;92551.63;;;7.15;77.84
8920;BME280;4495;42.644;23.274;2024-02-26T07:19:33;92549.78;;;7.33;78.49
8920;BME280;4495;42.644;23.274;2024-02-26T07:21:59;92553.19;;;7.07;78.46
8920;BME280;4495;42.644;23.274;2024-02-26T07:24:27;92559.09;;;7.25;78.33
8920;BME280;4495;42.644;23.274;2024-02-26T07:26:53;92554.34;;;7.44;77.79
8920;BME280;4495;42.644;23.274;2024-02-26T07:29:20;92557.19;;;7.52;77.71
8920;BME280;4495;42.644;23.274;2024-02-26T07:31:46;92546.84;;;7.52;76.20
8920;BME280;4495;42.644;23.274;2024-02-26T07:34:12;92558.75;;;7.82;76.72
8920;BME280;4495;42.644;23.274;2024-02-26T07:36:37;92557.00;;;8.04;75.03
8920;BME280;4495;42.644;23.274;2024-02-26T07:39:03;92553.47;;;8.08;74.75
8920;BME280;4495;42.644;23.274;2024-02-26T07:41:28;92557.31;;;8.32;74.15
8920;BME280;4495;42.644;23.274;2024-02-26T07:43:53;92552.03;;;8.20;73.33
8920;BME280;4495;42.644;23.274;2024-02-26T07:46:19;92551.16;;;7.77;75.47
8920;BME280;4495;42.644;23.274;2024-02-26T07:48:44;92553.00;;;7.77;75.61
8920;BME280;4495;42.644;23.274;2024-02-26T07:51:12;92551.66;;;8.00;74.10
8920;BME280;4495;42.644;23.274;2024-02-26T07:53:38;92553.69;;;7.95;74.32
8920;BME280;4495;42.644;23.274;2024-02-26T07:56:03;92553.69;;;8.24;73.88
8920;BME280;4495;42.644;23.274;2024-02-26T07:58:29;92556.09;;;8.59;73.14
8920;BME280;4495;42.644;23.274;2024-02-26T08:00:54;92554.06;;;8.14;72.58
8920;BME280;4495;42.644;23.274;2024-02-26T08:03:20;92551.09;;;8.24;73.68
8920;BME280;4495;42.644;23.274;2024-02-26T08:05:45;92548.06;;;8.22;74.00
8920;BME280;4495;42.644;23.274;2024-02-26T08:08:10;92546.75;;;8.46;72.13
8920;BME280;4495;42.644;23.274;2024-02-26T08:10:36;92546.94;;;8.83;71.38
8920;BME280;4495;42.644;23.274;2024-02-26T08:13:01;92548.22;;;9.10;69.53
8920;BME280;4495;42.644;23.274;2024-02-26T08:15:33;92547.91;;;9.11;70.45
8920;BME280;4495;42.644;23.274;2024-02-26T08:18:03;92537.44;;;8.87;70.57
8920;BME280;4495;42.644;23.274;2024-02-26T08:20:29;92544.69;;;9.14;69.42
8920;BME280;4495;42.644;23.274;2024-02-26T08:22:55;92538.22;;;9.21;69.65
8920;BME280;4495;42.644;23.274;2024-02-26T08:25:20;92545.19;;;9.41;69.44
8920;BME280;4495;42.644;23.274;2024-02-26T08:27:46;92545.09;;;9.50;68.76
8920;BME280;4495;42.644;23.274;2024-02-26T08:30:13;92544.34;;;9.62;68.16
8920;BME280;4495;42.644;23.274;2024-02-26T08:32:42;92536.28;;;9.88;67.46
8920;BME280;4495;42.644;23.274;2024-02-26T08:35:07;92540.63;;;10.08;67.57
8920;BME280;4495;42.644;23.274;2024-02-26T08:37:33;92535.13;;;10.34;65.42
8920;BME280;4495;42.644;23.274;2024-02-26T08:39:58;92545.50;;;10.34;65.76
8920;BME280;4495;42.644;23.274;2024-02-26T08:42:24;92539.34;;;10.39;66.14
8920;BME280;4495;42.644;23.274;2024-02-26T08:44:49;92541.81;;;10.48;64.99
8920;BME280;4495;42.644;23.274;2024-02-26T08:47:15;92541.56;;;10.65;64.87
8920;BME280;4495;42.644;23.274;2024-02-26T08:49:45;92540.94;;;10.19;65.20
8920;BME280;4495;42.644;23.274;2024-02-26T08:52:10;92539.28;;;10.64;64.63
8920;BME280;4495;42.644;23.274;2024-02-26T08:54:36;92536.44;;;10.81;64.66
8920;BME280;4495;42.644;23.274;2024-02-26T08:57:02;92542.91;;;11.15;63.38
8920;BME280;4495;42.644;23.274;2024-02-26T08:59:28;92539.28;;;11.32;61.96
8920;BME280;4495;42.644;23.274;2024-02-26T09:01:53;92537.94;;;11.38;61.69
8920;BME280;4495;42.644;23.274;2024-02-26T09:04:18;92532.56;;;11.47;61.46
8920;BME280;4495;42.644;23.274;2024-02-26T09:06:44;92536.16;;;11.27;62.47
8920;BME280;4495;42.644;23.274;2024-02-26T09:09:09;92534.28;;;11.27;61.62
8920;BME280;4495;42.644;23.274;2024-02-26T09:11:36;92538.03;;;11.42;61.54
8920;BME280;4495;42.644;23.274;2024-02-26T09:14:02;92529.00;;;11.23;62.09
8920;BME280;4495;42.644;23.274;2024-02-26T09:16:29;92535.91;;;11.32;60.93
8920;BME280;4495;42.644;23.274;2024-02-26T09:18:54;92534.19;;;11.08;61.34
8920;BME280;4495;42.644;23.274;2024-02-26T09:21:20;92534.66;;;10.57;62.99
8920;BME280;4495;42.644;23.274;2024-02-26T09:23:49;92535.25;;;11.07;61.84
8920;BME280;4495;42.644;23.274;2024-02-26T09:26:15;92536.16;;;11.27;61.38
8920;BME280;4495;42.644;23.274;2024-02-26T09:28:40;92527.38;;;11.63;59.85
8920;BME280;4495;42.644;23.274;2024-02-26T09:31:06;92534.75;;;11.45;60.05
8920;BME280;4495;42.644;23.274;2024-02-26T09:33:32;92536.25;;;11.30;60.77
8920;BME280;4495;42.644;23.274;2024-02-26T09:35:57;92537.38;;;11.61;59.98
8920;BME280;4495;42.644;23.274;2024-02-26T09:38:23;92532.50;;;11.59;58.72
8920;BME280;4495;42.644;23.274;2024-02-26T09:40:49;92532.75;;;11.70;60.17
8920;BME280;4495;42.644;23.274;2024-02-26T09:43:17;92523.38;;;11.97;58.68
8920;BME280;4495;42.644;23.274;2024-02-26T09:45:45;92524.72;;;11.75;58.79
8920;BME280;4495;42.644;23.274;2024-02-26T09:48:12;92531.09;;;12.10;58.44
8920;BME280;4495;42.644;23.274;2024-02-26T09:50:40;92520.97;;;11.89;57.52
8920;BME280;4495;42.644;23.274;2024-02-26T09:53:08;92525.91;;;11.94;57.60
8920;BME280;4495;42.644;23.274;2024-02-26T09:55:35;92525.13;;;12.25;57.55
8920;BME280;4495;42.644;23.274;2024-02-26T09:58:01;92518.56;;;11.99;57.36
8920;BME280;4495;42.644;23.274;2024-02-26T10:00:30;92517.78;;;12.31;57.41
8920;BME280;4495;42.644;23.274;2024-02-26T10:03:03;92509.91;;;12.62;56.49
8920;BME280;4495;42.644;23.274;2024-02-26T10:05:30;92503.03;;;12.93;55.70
8920;BME280;4495;42.644;23.274;2024-02-26T10:07:57;92509.75;;;12.94;55.90
8920;BME280;4495;42.644;23.274;2024-02-26T10:10:22;92509.63;;;12.87;56.07
8920;BME280;4495;42.644;23.274;2024-02-26T10:12:48;92502.06;;;13.01;55.78
8920;BME280;4495;42.644;23.274;2024-02-26T10:15:14;92502.59;;;13.10;55.77
8920;BME280;4495;42.644;23.274;2024-02-26T10:17:39;92494.72;;;12.87;55.41
8920;BME280;4495;42.644;23.274;2024-02-26T10:20:18;92495.34;;;12.81;55.84
8920;BME280;4495;42.644;23.274;2024-02-26T10:22:46;92487.84;;;12.79;55.25
8920;BME280;4495;42.644;23.274;2024-02-26T10:25:12;92486.19;;;12.71;56.00
8920;BME280;4495;42.644;23.274;2024-02-26T10:27:40;92482.72;;;12.83;55.29
8920;BME280;4495;42.644;23.274;2024-02-26T10:30:27;92470.53;;;13.10;54.88
8920;BME280;4495;42.644;23.274;2024-02-26T10:32:52;92467.50;;;13.08;54.73
8920;BME280;4495;42.644;23.274;2024-02-26T10:35:19;92469.72;;;13.06;54.26
8920;BME280;4495;42.644;23.274;2024-02-26T10:37:48;92461.25;;;13.13;54.55
8920;BME280;4495;42.644;23.274;2024-02-26T10:40:15;92462.19;;;13.24;53.13
8920;BME280;4495;42.644;23.274;2024-02-26T10:42:41;92463.00;;;13.05;53.88
8920;BME280;4495;42.644;23.274;2024-02-26T10:45:08;92458.13;;;13.26;53.42
8920;BME280;4495;42.644;23.274;2024-02-26T10:47:37;92458.84;;;13.04;53.80
8920;BME280;4495;42.644;23.274;2024-02-26T10:50:04;92457.09;;;12.69;54.77
8920;BME280;4495;42.644;23.274;2024-02-26T10:52:35;92466.66;;;12.81;54.88
8920;BME280;4495;42.644;23.274;2024-02-26T10:55:02;92458.47;;;12.63;55.01
8920;BME280;4495;42.644;23.274;2024-02-26T10:57:36;92451.59;;;12.55;54.80
8920;BME280;4495;42.644;23.274;2024-02-26T11:00:04;92452.69;;;12.73;53.65
8920;BME280;4495;42.644;23.274;2024-02-26T11:02:33;92449.53;;;12.64;54.10
8920;BME280;4495;42.644;23.274;2024-02-26T11:05:03;92446.59;;;12.65;55.05
8920;BME280;4495;42.644;23.274;2024-02-26T11:07:30;92445.44;;;12.63;54.34
8920;BME280;4495;42.644;23.274;2024-02-26T11:09:56;92443.63;;;12.47;54.86
8920;BME280;4495;42.644;23.274;2024-02-26T11:12:22;92458.78;;;12.42;53.96
8920;BME280;4495;42.644;23.274;2024-02-26T11:14:49;92449.94;;;12.46;54.58
8920;BME280;4495;42.644;23.274;2024-02-26T11:17:21;92448.19;;;12.70;54.94
8920;BME280;4495;42.644;23.274;2024-02-26T11:19:48;92455.72;;;12.75;54.47
8920;BME280;4495;42.644;23.274;2024-02-26T11:22:14;92446.47;;;12.58;53.87
8920;BME280;4495;42.644;23.274;2024-02-26T11:24:40;92445.56;;;12.51;54.79
8920;BME280;4495;42.644;23.274;2024-02-26T11:27:09;92445.75;;;12.42;55.08
8920;BME280;4495;42.644;23.274;2024-02-26T11:29:46;92443.56;;;12.44;54.67
8920;BME280;4495;42.644;23.274;2024-02-26T11:32:13;92445.69;;;12.38;55.44
8920;BME280;4495;42.644;23.274;2024-02-26T11:34:40;92433.56;;;12.65;54.04
8920;BME280;4495;42.644;23.274;2024-02-26T11:37:12;92436.91;;;12.46;54.18
8920;BME280;4495;42.644;23.274;2024-02-26T11:39:41;92434.44;;;12.54;54.26
8920;BME280;4495;42.644;23.274;2024-02-26T11:42:08;92429.06;;;12.46;55.45
8920;BME280;4495;42.644;23.274;2024-02-26T11:44:35;92435.63;;;12.56;54.45
8920;BME280;4495;42.644;23.274;2024-02-26T11:47:18;92433.88;;;12.83;53.37
8920;BME280;4495;42.644;23.274;2024-02-26T11:49:44;92424.91;;;12.81;53.35
8920;BME280;4495;42.644;23.274;2024-02-26T11:52:10;92422.91;;;12.94;52.89
8920;BME280;4495;42.644;23.274;2024-02-26T11:54:45;92419.88;;;12.72;52.72
8920;BME280;4495;42.644;23.274;2024-02-26T12:00:03;92421.47;;;13.19;53.01
8920;BME280;4495;42.644;23.274;2024-02-26T12:02:45;92422.06;;;13.55;52.08
8920;BME280;4495;42.644;23.274;2024-02-26T12:07:46;92432.97;;;14.41;49.29
8920;BME280;4495;42.644;23.274;2024-02-26T12:10:15;92428.75;;;14.32;48.49
8920;BME280;4495;42.644;23.274;2024-02-26T12:12:42;92435.91;;;14.35;48.40
8920;BME280;4495;42.644;23.274;2024-02-26T12:15:08;92440.25;;;13.98;49.71
8920;BME280;4495;42.644;23.274;2024-02-26T12:17:36;92440.19;;;13.94;50.14
8920;BME280;4495;42.644;23.274;2024-02-26T12:20:09;92427.56;;;14.00;49.67
8920;BME280;4495;42.644;23.274;2024-02-26T12:22:35;92430.69;;;14.09;49.29
8920;BME280;4495;42.644;23.274;2024-02-26T12:25:02;92432.00;;;14.26;48.52
8920;BME280;4495;42.644;23.274;2024-02-26T12:27:28;92440.25;;;14.54;47.59
8920;BME280;4495;42.644;23.274;2024-02-26T12:29:53;92443.88;;;14.46;48.05
8920;BME280;4495;42.644;23.274;2024-02-26T12:32:19;92438.69;;;14.20;48.35
8920;BME280;4495;42.644;23.274;2024-02-26T12:34:44;92445.03;;;14.49;46.85
8920;BME280;4495;42.644;23.274;2024-02-26T12:37:10;92443.38;;;14.37;46.88
8920;BME280;4495;42.644;23.274;2024-02-26T12:39:37;92446.13;;;14.48;46.56
8920;BME280;4495;42.644;23.274;2024-02-26T12:42:02;92450.31;;;14.26;48.25
8920;BME280;4495;42.644;23.274;2024-02-26T12:44:28;92448.56;;;14.33;47.58
8920;BME280;4495;42.644;23.274;2024-02-26T12:47:03;92448.59;;;14.37;47.82
8920;BME280;4495;42.644;23.274;2024-02-26T12:49:29;92452.50;;;14.50;46.93
8920;BME280;4495;42.644;23.274;2024-02-26T12:51:54;92454.06;;;14.25;47.13
8920;BME280;4495;42.644;23.274;2024-02-26T12:54:28;92442.22;;;14.34;46.44
8920;BME280;4495;42.644;23.274;2024-02-26T12:56:53;92440.88;;;14.18;47.54
8920;BME280;4495;42.644;23.274;2024-02-26T12:59:19;92448.00;;;13.67;48.36
8920;BME280;4495;42.644;23.274;2024-02-26T13:01:45;92447.47;;;13.81;48.64
8920;BME280;4495;42.644;23.274;2024-02-26T13:04:10;92439.44;;;13.93;47.63
8920;BME280;4495;42.644;23.274;2024-02-26T13:06:36;92435.59;;;13.87;47.37
8920;BME280;4495;42.644;23.274;2024-02-26T13:09:02;92441.06;;;13.52;47.26
8920;BME280;4495;42.644;23.274;2024-02-26T13:11:28;92434.81;;;13.60;48.25
8920;BME280;4495;42.644;23.274;2024-02-26T13:13:55;92437.44;;;13.60;48.02
8920;BME280;4495;42.644;23.274;2024-02-26T13:16:20;92437.53;;;13.67;46.98
8920;BME280;4495;42.644;23.274;2024-02-26T13:18:48;92444.88;;;13.81;46.38